Terminal Aerodrome Forecast
Issued by NWS Tampa Bay Area, FL

Home | Current Version | Previous Version | Text Only | Print | Product List | Glossary On
Versions: 1 2 3 4 5 6 7 8 9 10 11 12 13 14 15 16
000
FTUS42 KTBW 210537
TAFSRQ
TAF
KSRQ 210537Z 2106/2206 12011KT P6SM FEW010 SCT025
     FM210900 11007KT P6SM SCT010
      TEMPO 2109/2112 BKN010
     FM211400 11010KT P6SM SCT025
     FM211700 13012G18KT P6SM SCT050
     FM220200 09007KT P6SM FEW020=

USA.gov is the U.S. government's official web portal to all federal, state and local government web resources and services.